MKJS 181700Z 04010KT 9999 -SHRA BKN018 BKN030 27/23 Q1010
MKJP 181700Z 01008KT 9999 FEW022 FEW024CB BKN035 31/22 Q1009
MWCR 181700Z 01011KT 330V060 9999 SCT014 SCT025 28/22 Q1011
MWCB 181700Z 03009KT 9999 FEW016 SCT030 27/22 Q1012